createdAt,value
2019-03-26T00:00:47.565Z,4.50
2019-03-26T00:03:17.514Z,3.77
2019-03-26T00:05:47.423Z,4.43
2019-03-26T00:08:17.481Z,3.80
2019-03-26T00:10:47.345Z,3.70
2019-03-26T00:13:17.243Z,3.60
2019-03-26T00:15:47.189Z,4.13
2019-03-26T00:18:17.067Z,4.03
2019-03-26T00:20:46.964Z,4.00
2019-03-26T00:23:16.864Z,3.63
2019-03-26T00:25:46.739Z,3.67
2019-03-26T00:28:16.628Z,3.77
2019-03-26T00:30:46.591Z,3.63
2019-03-26T00:33:16.454Z,3.10
2019-03-26T00:35:46.350Z,3.60
2019-03-26T00:38:16.299Z,3.97
2019-03-26T00:40:46.185Z,3.97
2019-03-26T00:43:16.094Z,3.40
2019-03-26T00:45:45.959Z,3.67
2019-03-26T00:48:15.849Z,4.37
2019-03-26T00:50:45.736Z,3.43
2019-03-26T00:53:15.645Z,3.97
2019-03-26T00:55:45.516Z,4.03
2019-03-26T00:58:15.394Z,4.27
2019-03-26T01:00:46.007Z,3.97
2019-03-26T01:03:15.955Z,4.00
2019-03-26T01:05:45.917Z,3.33
2019-03-26T01:08:15.884Z,3.77
2019-03-26T01:10:45.769Z,4.10
2019-03-26T01:13:15.669Z,4.03
2019-03-26T01:15:45.548Z,4.57
2019-03-26T01:18:15.498Z,4.30
2019-03-26T01:20:45.368Z,3.90
2019-03-26T01:23:15.240Z,4.20
2019-03-26T01:25:45.117Z,3.83
2019-03-26T01:28:14.986Z,3.43
2019-03-26T01:30:44.862Z,4.03
2019-03-26T01:33:15.098Z,4.40
2019-03-26T01:35:44.998Z,4.07
2019-03-26T01:38:14.863Z,3.83
2019-03-26T01:40:44.726Z,3.90
2019-03-26T01:43:14.692Z,4.03
2019-03-26T01:45:44.658Z,4.13
2019-03-26T01:48:14.542Z,4.00
2019-03-26T01:50:44.423Z,4.10
2019-03-26T01:53:14.314Z,3.70
2019-03-26T01:55:44.180Z,3.97
2019-03-26T01:58:14.078Z,3.80
2019-03-26T02:00:44.020Z,3.70
2019-03-26T02:03:13.905Z,4.20
2019-03-26T02:05:43.787Z,4.20
2019-03-26T02:08:13.761Z,4.53
2019-03-26T02:10:43.825Z,4.10
2019-03-26T02:13:13.725Z,4.73
2019-03-26T02:15:43.634Z,4.50
2019-03-26T02:18:13.524Z,4.40
2019-03-26T02:20:43.415Z,3.67
2019-03-26T02:23:13.296Z,4.23
2019-03-26T02:25:43.240Z,4.13
2019-03-26T02:28:13.286Z,4.73
2019-03-26T02:30:43.253Z,3.47
2019-03-26T02:33:13.141Z,4.00
2019-03-26T02:35:43.027Z,3.97
2019-03-26T02:38:12.933Z,3.93
2019-03-26T02:40:42.908Z,4.27
2019-03-26T02:43:12.858Z,4.10
2019-03-26T02:45:42.759Z,3.97
2019-03-26T02:48:12.765Z,4.17
2019-03-26T02:50:42.759Z,3.90
2019-03-26T02:53:12.711Z,4.20
2019-03-26T02:55:42.599Z,3.77
2019-03-26T02:58:12.474Z,3.80
2019-03-26T03:00:42.354Z,3.33
2019-03-26T03:03:12.247Z,3.83
2019-03-26T03:05:42.121Z,3.93
2019-03-26T03:08:12.370Z,3.97
2019-03-26T03:10:42.238Z,3.83
2019-03-26T03:13:12.138Z,4.33
2019-03-26T03:15:42.037Z,3.90
2019-03-26T03:18:11.990Z,4.10
2019-03-26T03:20:41.874Z,4.47
2019-03-26T03:23:11.763Z,4.50
2019-03-26T03:25:41.651Z,4.00
2019-03-26T03:28:11.548Z,4.07
2019-03-26T03:30:41.429Z,3.77
2019-03-26T03:33:11.401Z,4.33
2019-03-26T03:35:52.022Z,3.97
2019-03-26T03:38:12.940Z,4.10
2019-03-26T03:40:42.831Z,4.50
2019-03-26T03:43:12.717Z,4.27
2019-03-26T03:45:42.670Z,4.03
2019-03-26T03:48:12.645Z,4.13
2019-03-26T03:50:44.375Z,4.53
2019-03-26T03:53:15.464Z,4.23
2019-03-26T03:55:45.714Z,3.73
2019-03-26T03:58:15.803Z,4.73
2019-03-26T04:00:45.694Z,4.40
2019-03-26T04:03:15.569Z,4.50
2019-03-26T04:05:45.467Z,3.47
2019-03-26T04:08:15.359Z,3.57
2019-03-26T04:10:45.232Z,4.43
2019-03-26T04:13:15.202Z,4.50
2019-03-26T04:15:45.153Z,4.40
2019-03-26T04:18:15.046Z,3.90
2019-03-26T04:20:44.942Z,4.27
2019-03-26T04:23:14.831Z,4.07
2019-03-26T04:25:44.743Z,4.30
2019-03-26T04:28:14.654Z,4.17
2019-03-26T04:30:44.811Z,5.17
2019-03-26T04:33:14.897Z,5.13
2019-03-26T04:35:44.793Z,5.00
2019-03-26T04:38:14.672Z,5.60
2019-03-26T04:40:44.617Z,5.87
2019-03-26T04:43:14.500Z,5.30
2019-03-26T04:45:44.418Z,4.67
2019-03-26T04:48:14.317Z,4.73
2019-03-26T04:50:44.219Z,4.67
2019-03-26T04:53:14.101Z,4.90
2019-03-26T04:55:43.969Z,5.50
2019-03-26T04:58:13.879Z,4.57
2019-03-26T05:00:43.753Z,5.77
2019-03-26T05:03:13.644Z,4.80
2019-03-26T05:05:43.618Z,5.20
2019-03-26T05:08:13.576Z,5.37
2019-03-26T05:10:43.454Z,5.57
2019-03-26T05:13:13.553Z,5.80
2019-03-26T05:15:43.430Z,6.57
2019-03-26T05:18:13.335Z,5.83
2019-03-26T05:20:43.202Z,6.57
2019-03-26T05:23:13.102Z,6.30
2019-03-26T05:25:42.964Z,5.97
2019-03-26T05:28:12.884Z,5.63
2019-03-26T05:30:42.837Z,6.47
2019-03-26T05:33:12.872Z,6.07
2019-03-26T05:35:42.794Z,6.40
2019-03-26T05:38:12.672Z,6.07
2019-03-26T05:40:42.543Z,6.60
2019-03-26T05:43:12.431Z,6.07
2019-03-26T05:45:42.337Z,6.30
2019-03-26T05:48:12.249Z,6.33
2019-03-26T05:50:42.123Z,5.83
2019-03-26T05:53:11.990Z,6.50
2019-03-26T05:55:41.898Z,6.00
2019-03-26T05:58:11.800Z,6.50
2019-03-26T06:00:41.668Z,6.00
2019-03-26T06:03:11.549Z,6.40
2019-03-26T06:05:41.448Z,5.77
2019-03-26T06:08:11.314Z,5.37
2019-03-26T06:10:41.236Z,5.20
2019-03-26T06:13:11.098Z,5.60
2019-03-26T06:15:40.995Z,5.27
2019-03-26T06:18:10.950Z,5.13
2019-03-26T06:20:40.856Z,5.53
2019-03-26T06:23:10.731Z,5.77
2019-03-26T06:25:40.683Z,5.70
2019-03-26T06:28:10.586Z,6.00
2019-03-26T06:30:40.485Z,5.90
2019-03-26T06:33:10.360Z,5.47
2019-03-26T06:35:40.289Z,4.97
2019-03-26T06:38:10.170Z,5.27
2019-03-26T06:40:40.053Z,5.90
2019-03-26T06:43:09.907Z,5.73
2019-03-26T06:45:39.821Z,5.50
2019-03-26T06:48:09.695Z,5.10
2019-03-26T06:50:39.605Z,6.17
2019-03-26T06:53:09.540Z,6.33
2019-03-26T06:55:39.435Z,5.97
2019-03-26T06:58:09.306Z,6.27
2019-03-26T07:00:39.281Z,6.00
2019-03-26T07:03:09.223Z,6.33
2019-03-26T07:05:39.179Z,6.60
2019-03-26T07:08:09.133Z,7.03
2019-03-26T07:10:39.005Z,7.30
2019-03-26T07:13:08.957Z,7.20
2019-03-26T07:15:38.872Z,6.97
2019-03-26T07:18:08.834Z,6.90
2019-03-26T07:20:38.810Z,6.63
2019-03-26T07:23:08.746Z,6.63
2019-03-26T07:25:38.666Z,6.93
2019-03-26T07:28:08.663Z,7.30
2019-03-26T07:30:42.561Z,6.30
2019-03-26T07:33:12.589Z,6.97
2019-03-26T07:35:42.862Z,6.50
2019-03-26T07:38:13.390Z,6.77
2019-03-26T07:40:43.247Z,6.17
2019-03-26T07:43:13.203Z,6.73
2019-03-26T07:45:43.073Z,6.80
2019-03-26T07:48:13.029Z,6.97
2019-03-26T07:50:42.925Z,7.20
2019-03-26T07:53:12.886Z,7.33
2019-03-26T07:55:43.983Z,7.10
2019-03-26T07:58:14.084Z,6.97
2019-03-26T08:00:43.897Z,7.50
2019-03-26T08:03:13.793Z,6.30
2019-03-26T08:05:43.690Z,7.20
2019-03-26T08:08:13.556Z,7.17
2019-03-26T08:10:43.442Z,7.10
2019-03-26T08:13:13.416Z,6.90
2019-03-26T08:15:43.290Z,7.37
2019-03-26T08:18:13.186Z,7.63
2019-03-26T08:20:43.114Z,6.97
2019-03-26T08:23:12.998Z,6.87
2019-03-26T08:25:42.911Z,7.53
2019-03-26T08:28:12.807Z,7.63
2019-03-26T08:30:42.680Z,7.77
2019-03-26T08:33:12.556Z,7.50
2019-03-26T08:35:42.627Z,8.23
2019-03-26T08:38:13.487Z,7.17
2019-03-26T08:40:43.538Z,7.77
2019-03-26T08:43:13.409Z,8.40
2019-03-26T08:45:43.299Z,8.50
2019-03-26T08:48:13.197Z,8.13
2019-03-26T08:50:43.095Z,8.17
2019-03-26T08:53:13.014Z,8.60
2019-03-26T08:55:42.938Z,8.60
2019-03-26T08:58:12.838Z,7.57
2019-03-26T09:00:42.716Z,8.40
2019-03-26T09:03:12.601Z,6.67
2019-03-26T09:05:42.501Z,7.57
2019-03-26T09:08:24.521Z,7.90
2019-03-26T09:10:51.576Z,7.77
2019-03-26T09:13:15.619Z,8.30
2019-03-26T09:15:45.615Z,8.90
2019-03-26T09:18:15.508Z,8.27
2019-03-26T09:20:45.390Z,7.70
2019-03-26T09:23:15.278Z,9.07
2019-03-26T09:25:45.160Z,9.53
2019-03-26T09:28:15.055Z,8.03
2019-03-26T09:30:45.011Z,8.30
2019-03-26T09:33:14.943Z,7.10
2019-03-26T09:35:46.428Z,7.70
2019-03-26T09:38:16.303Z,7.53
2019-03-26T09:40:46.173Z,5.90
2019-03-26T09:43:16.050Z,6.97
2019-03-26T09:45:45.935Z,7.63
2019-03-26T09:48:15.862Z,6.27
2019-03-26T09:50:47.603Z,7.03
2019-03-26T09:53:17.522Z,6.73
2019-03-26T09:55:47.458Z,5.83
2019-03-26T09:58:17.356Z,5.50
2019-03-26T10:00:47.463Z,6.50
2019-03-26T10:03:17.636Z,7.00
2019-03-26T10:05:47.613Z,6.33
2019-03-26T10:08:18.085Z,6.37
2019-03-26T10:10:49.591Z,5.43
2019-03-26T10:13:19.463Z,5.97
2019-03-26T10:15:49.425Z,5.70
2019-03-26T10:18:19.339Z,6.50
2019-03-26T10:20:49.252Z,5.93
2019-03-26T10:23:19.141Z,6.23
2019-03-26T10:25:49.095Z,6.53
2019-03-26T10:28:19.044Z,6.53
2019-03-26T10:30:49.712Z,4.10
2019-03-26T10:33:19.670Z,6.43
2019-03-26T10:35:49.562Z,5.23
2019-03-26T10:38:19.438Z,3.57
2019-03-26T10:40:49.398Z,3.60
2019-03-26T10:43:19.412Z,4.47
2019-03-26T10:45:49.470Z,3.60
2019-03-26T10:48:19.367Z,4.40
2019-03-26T10:50:49.260Z,4.63
2019-03-26T10:53:19.154Z,4.07
2019-03-26T10:55:49.019Z,5.03
2019-03-26T10:58:18.922Z,4.77
2019-03-26T11:00:49.116Z,4.93
2019-03-26T11:03:19.032Z,5.17
2019-03-26T11:05:48.922Z,5.13
2019-03-26T11:08:18.962Z,4.07
2019-03-26T11:10:48.919Z,3.63
2019-03-26T11:13:18.806Z,4.10
2019-03-26T11:15:48.707Z,4.50
2019-03-26T11:18:18.689Z,4.37
2019-03-26T11:21:01.391Z,4.17
2019-03-26T11:23:20.135Z,3.33
2019-03-26T11:25:50.011Z,3.80
2019-03-26T11:28:19.999Z,3.90
2019-03-26T11:30:49.941Z,4.10
2019-03-26T11:33:19.863Z,3.87
2019-03-26T11:35:49.852Z,3.87
2019-03-26T11:38:19.815Z,3.77
2019-03-26T11:40:49.797Z,4.00
2019-03-26T11:43:19.696Z,4.50
2019-03-26T11:45:50.375Z,4.10
2019-03-26T11:48:22.596Z,4.23
2019-03-26T11:50:53.341Z,4.00
2019-03-26T11:53:24.130Z,4.07
2019-03-26T11:55:54.973Z,4.20
2019-03-26T11:58:30.789Z,4.00
2019-03-26T12:00:58.482Z,4.07
2019-03-26T12:03:28.971Z,4.90
2019-03-26T12:05:58.874Z,5.13
2019-03-26T12:08:28.788Z,5.17
2019-03-26T12:11:00.025Z,4.60
2019-03-26T12:13:30.349Z,4.60
2019-03-26T12:16:00.234Z,2.70
2019-03-26T12:18:30.145Z,4.50
2019-03-26T12:21:00.347Z,3.77
2019-03-26T12:23:30.304Z,3.53
2019-03-26T12:26:00.225Z,2.87
2019-03-26T12:28:30.134Z,3.13
2019-03-26T12:31:00.024Z,3.90
2019-03-26T12:33:29.944Z,3.13
2019-03-26T12:35:59.825Z,3.77
2019-03-26T12:38:29.722Z,4.00
2019-03-26T12:40:59.675Z,4.20
2019-03-26T12:43:29.567Z,4.00
2019-03-26T12:46:01.820Z,4.07
2019-03-26T12:48:31.078Z,4.50
2019-03-26T12:51:01.032Z,3.23
2019-03-26T12:53:30.916Z,4.37
2019-03-26T12:56:00.835Z,4.53
2019-03-26T12:58:33.643Z,3.73
2019-03-26T13:01:02.643Z,3.30
2019-03-26T13:03:32.529Z,4.50
2019-03-26T13:06:02.526Z,4.57
2019-03-26T13:08:32.444Z,4.17
2019-03-26T13:11:02.335Z,3.97
2019-03-26T13:13:32.250Z,5.20
2019-03-26T13:16:02.160Z,4.30
2019-03-26T13:18:32.071Z,4.60
2019-03-26T13:21:01.981Z,4.60
2019-03-26T13:23:31.849Z,5.07
2019-03-26T13:26:01.729Z,5.00
2019-03-26T13:28:31.748Z,4.80
2019-03-26T13:31:01.687Z,4.80
2019-03-26T13:33:31.663Z,4.30
2019-03-26T13:36:01.534Z,4.03
2019-03-26T13:38:31.404Z,4.50
2019-03-26T13:41:01.302Z,3.80
2019-03-26T13:43:31.214Z,4.20
2019-03-26T13:46:01.093Z,4.20
2019-03-26T13:48:30.961Z,3.53
2019-03-26T13:51:01.151Z,3.57
2019-03-26T13:53:31.077Z,3.90
2019-03-26T13:56:00.981Z,4.23
2019-03-26T13:58:30.873Z,4.37
2019-03-26T14:01:00.941Z,4.57
2019-03-26T14:03:30.949Z,3.90
2019-03-26T14:06:00.884Z,4.50
2019-03-26T14:08:30.778Z,3.00
2019-03-26T14:11:00.779Z,3.63
2019-03-26T14:13:31.724Z,4.30
2019-03-26T14:16:01.607Z,4.20
2019-03-26T14:18:31.579Z,4.10
2019-03-26T14:21:01.566Z,4.30
2019-03-26T14:23:31.552Z,4.83
2019-03-26T14:26:01.435Z,4.40
2019-03-26T14:28:31.301Z,4.00
2019-03-26T14:31:01.191Z,4.40
2019-03-26T14:33:31.297Z,4.00
2019-03-26T14:36:01.219Z,3.90
2019-03-26T14:38:31.091Z,3.50
2019-03-26T14:41:01.060Z,3.50
2019-03-26T14:43:30.930Z,4.30
2019-03-26T14:46:00.833Z,4.63
2019-03-26T14:48:30.755Z,4.40
2019-03-26T14:51:00.668Z,4.33
2019-03-26T14:53:30.553Z,4.30
2019-03-26T14:56:00.466Z,4.27
2019-03-26T14:58:30.363Z,4.17
2019-03-26T15:01:00.264Z,3.97
2019-03-26T15:03:30.146Z,5.00
2019-03-26T15:06:00.014Z,4.57
2019-03-26T15:08:30.005Z,4.23
2019-03-26T15:11:08.061Z,4.50
2019-03-26T15:13:31.543Z,4.50
2019-03-26T15:16:01.419Z,4.80
2019-03-26T15:18:31.290Z,4.90
2019-03-26T15:21:01.203Z,4.27
2019-03-26T15:23:31.090Z,4.70
2019-03-26T15:26:00.972Z,4.83
2019-03-26T15:28:30.873Z,5.87
2019-03-26T15:31:00.838Z,4.83
2019-03-26T15:33:33.691Z,5.30
2019-03-26T15:36:02.282Z,4.70
2019-03-26T15:38:32.449Z,4.27
2019-03-26T15:41:02.350Z,4.10
2019-03-26T15:43:32.323Z,4.70
2019-03-26T15:46:02.235Z,4.37
2019-03-26T15:48:32.100Z,5.03
2019-03-26T15:51:01.970Z,4.07
2019-03-26T15:53:33.802Z,4.10
2019-03-26T15:56:03.830Z,4.63
2019-03-26T15:58:33.739Z,5.23
2019-03-26T16:01:03.622Z,4.03
2019-03-26T16:03:33.513Z,3.80
2019-03-26T16:06:03.860Z,4.90
2019-03-26T16:08:35.998Z,4.00
2019-03-26T16:11:05.410Z,3.30
2019-03-26T16:13:35.848Z,3.50
2019-03-26T16:16:05.972Z,3.77
2019-03-26T16:18:35.866Z,3.90
2019-03-26T16:21:05.823Z,3.53
2019-03-26T16:23:35.746Z,3.87
2019-03-26T16:26:05.709Z,3.30
2019-03-26T16:28:35.631Z,3.80
2019-03-26T16:31:05.513Z,3.30
2019-03-26T16:33:35.435Z,2.87
2019-03-26T16:36:05.428Z,3.77
2019-03-26T16:38:35.345Z,3.13
2019-03-26T16:41:05.332Z,3.83
2019-03-26T16:43:35.341Z,3.20
2019-03-26T16:46:05.302Z,3.20
2019-03-26T16:48:35.232Z,3.97
2019-03-26T16:51:05.194Z,3.40
2019-03-26T16:53:35.071Z,3.17
2019-03-26T16:56:04.983Z,3.53
2019-03-26T16:58:34.905Z,3.20
2019-03-26T17:01:04.855Z,3.27
2019-03-26T17:03:34.819Z,3.03
2019-03-26T17:06:04.756Z,4.07
2019-03-26T17:08:34.734Z,4.00
2019-03-26T17:11:04.615Z,3.90
2019-03-26T17:13:34.528Z,3.50
2019-03-26T17:16:05.805Z,3.33
2019-03-26T17:18:35.867Z,3.50
2019-03-26T17:21:05.937Z,3.40
2019-03-26T17:23:35.834Z,3.07
2019-03-26T17:26:05.731Z,3.10
2019-03-26T17:28:35.633Z,3.73
2019-03-26T17:31:05.587Z,3.20
2019-03-26T17:33:35.467Z,3.90
2019-03-26T17:36:05.592Z,3.53
2019-03-26T17:38:35.483Z,3.60
2019-03-26T17:41:05.557Z,3.00
2019-03-26T17:43:35.449Z,3.57
2019-03-26T17:46:05.397Z,3.53
2019-03-26T17:48:35.293Z,3.90
2019-03-26T17:51:05.242Z,6.03
2019-03-26T17:53:35.124Z,4.00
2019-03-26T17:56:05.157Z,4.37
2019-03-26T17:58:35.062Z,4.23
2019-03-26T18:01:05.076Z,4.07
2019-03-26T18:03:35.033Z,4.57
2019-03-26T18:06:05.015Z,3.77
2019-03-26T18:08:34.891Z,3.97
2019-03-26T18:11:04.841Z,4.57
2019-03-26T18:13:34.751Z,4.07
2019-03-26T18:16:04.719Z,4.00
2019-03-26T18:18:34.590Z,4.30
2019-03-26T18:21:04.568Z,4.50
2019-03-26T18:23:34.446Z,4.37
2019-03-26T18:26:04.501Z,4.20
2019-03-26T18:28:34.407Z,4.90
2019-03-26T18:31:04.312Z,4.20
2019-03-26T18:33:34.198Z,4.37
2019-03-26T18:36:04.088Z,4.50
2019-03-26T18:38:33.974Z,4.60
2019-03-26T18:41:04.030Z,4.93
2019-03-26T18:43:33.948Z,5.00
2019-03-26T18:46:03.829Z,4.53
2019-03-26T18:48:33.761Z,4.90
2019-03-26T18:51:03.642Z,5.07
2019-03-26T18:53:33.619Z,5.03
2019-03-26T18:56:03.519Z,5.03
2019-03-26T18:58:33.448Z,5.27
2019-03-26T19:01:03.324Z,4.90
2019-03-26T19:03:33.225Z,5.30
2019-03-26T19:06:03.111Z,4.77
2019-03-26T19:08:33.001Z,4.93
2019-03-26T19:11:02.908Z,4.67
2019-03-26T19:13:32.802Z,5.93
2019-03-26T19:16:02.679Z,5.33
2019-03-26T19:18:32.621Z,4.90
2019-03-26T19:21:02.957Z,5.80
2019-03-26T19:23:32.948Z,5.83
2019-03-26T19:26:02.834Z,6.60
2019-03-26T19:28:32.724Z,6.67
2019-03-26T19:31:02.619Z,6.47
2019-03-26T19:33:32.502Z,6.57
2019-03-26T19:36:02.400Z,6.53
2019-03-26T19:38:32.271Z,6.40
2019-03-26T19:41:02.169Z,5.97
2019-03-26T19:43:32.076Z,7.10
2019-03-26T19:46:01.995Z,6.50
2019-03-26T19:48:31.881Z,6.77
2019-03-26T19:51:01.856Z,6.50
2019-03-26T19:53:31.747Z,6.70
2019-03-26T19:56:01.655Z,6.87
2019-03-26T19:58:31.561Z,7.33
2019-03-26T20:01:01.523Z,6.53
2019-03-26T20:03:31.401Z,7.77
2019-03-26T20:06:12.768Z,7.33
2019-03-26T20:08:33.060Z,7.40
2019-03-26T20:11:02.937Z,8.70
2019-03-26T20:13:32.911Z,7.77
2019-03-26T20:16:02.830Z,7.93
2019-03-26T20:18:32.710Z,8.30
2019-03-26T20:21:02.993Z,8.43
2019-03-26T20:23:32.875Z,8.43
2019-03-26T20:26:02.759Z,7.67
2019-03-26T20:28:35.576Z,7.83
2019-03-26T20:31:05.559Z,8.73
2019-03-26T20:33:35.477Z,8.83
2019-03-26T20:36:05.471Z,8.73
2019-03-26T20:38:35.385Z,9.30
2019-03-26T20:41:05.344Z,9.10
2019-03-26T20:43:37.371Z,9.40
2019-03-26T20:46:07.007Z,9.70
2019-03-26T20:48:36.948Z,10.50
2019-03-26T20:51:06.941Z,9.57
2019-03-26T20:53:36.867Z,10.50
2019-03-26T20:56:06.830Z,10.47
2019-03-26T20:58:36.790Z,10.37
2019-03-26T21:01:06.700Z,11.80
2019-03-26T21:03:36.664Z,11.13
2019-03-26T21:06:06.574Z,11.13
2019-03-26T21:08:36.471Z,11.40
2019-03-26T21:11:06.393Z,10.50
2019-03-26T21:13:36.368Z,10.73
2019-03-26T21:16:06.255Z,10.37
2019-03-26T21:18:36.153Z,10.80
2019-03-26T21:21:06.362Z,11.83
2019-03-26T21:23:36.324Z,12.33
2019-03-26T21:26:06.331Z,12.23
2019-03-26T21:28:36.345Z,11.40
2019-03-26T21:31:06.269Z,11.50
2019-03-26T21:33:36.237Z,10.27
2019-03-26T21:36:07.142Z,10.90
2019-03-26T21:38:37.029Z,11.40
2019-03-26T21:41:07.030Z,10.70
2019-03-26T21:43:36.985Z,11.30
2019-03-26T21:46:06.863Z,11.53
2019-03-26T21:48:36.791Z,11.27
2019-03-26T21:51:06.761Z,11.70
2019-03-26T21:53:36.708Z,11.47
2019-03-26T21:56:07.200Z,11.30
2019-03-26T21:58:37.097Z,10.37
2019-03-26T22:01:07.027Z,10.37
2019-03-26T22:03:36.932Z,10.10
2019-03-26T22:06:06.822Z,10.33
2019-03-26T22:08:36.741Z,10.83
2019-03-26T22:11:06.738Z,9.60
2019-03-26T22:13:36.664Z,10.73
2019-03-26T22:16:06.645Z,10.17
2019-03-26T22:18:36.546Z,10.90
2019-03-26T22:21:06.510Z,11.03
2019-03-26T22:23:36.404Z,9.60
2019-03-26T22:26:06.281Z,10.23
2019-03-26T22:28:36.167Z,12.67
2019-03-26T22:31:06.155Z,11.27
2019-03-26T22:33:36.066Z,11.57
2019-03-26T22:36:05.978Z,11.33
2019-03-26T22:38:35.902Z,11.73
2019-03-26T22:41:05.793Z,11.43
2019-03-26T22:43:35.695Z,11.67
2019-03-26T22:46:05.687Z,12.83
2019-03-26T22:48:35.692Z,13.13
2019-03-26T22:51:05.620Z,12.30
2019-03-26T22:53:35.544Z,13.27
2019-03-26T22:56:05.440Z,13.73
2019-03-26T22:58:35.333Z,12.30
2019-03-26T23:01:06.018Z,13.10
2019-03-26T23:03:36.001Z,12.00
2019-03-26T23:06:06.048Z,14.27
2019-03-26T23:08:35.941Z,13.13
2019-03-26T23:11:05.864Z,11.77
2019-03-26T23:13:35.775Z,13.40
2019-03-26T23:16:05.981Z,11.70
2019-03-26T23:18:35.903Z,13.53
2019-03-26T23:21:05.888Z,13.93
2019-03-26T23:23:35.797Z,12.20
2019-03-26T23:26:05.845Z,13.77
2019-03-26T23:28:35.773Z,13.03
2019-03-26T23:31:05.700Z,14.50
2019-03-26T23:33:35.591Z,14.27
2019-03-26T23:36:05.515Z,13.93
2019-03-26T23:38:35.414Z,15.93
2019-03-26T23:41:05.422Z,15.30
2019-03-26T23:43:35.321Z,15.23
2019-03-26T23:46:05.288Z,15.07
2019-03-26T23:48:35.177Z,14.63
2019-03-26T23:51:05.212Z,15.97
2019-03-26T23:53:35.134Z,16.20
2019-03-26T23:56:05.363Z,16.53
2019-03-26T23:58:35.309Z,15.97
